Flight Track Log - Related Links

Times and Time Zones

All times are in EDT time to prevent confusion due to time zone crossing. See the N567GJ flight status page for this flight to view local times or setup timezone preferences in your user account.

Time Position Orientation Groundspeed Altitude Reporting Facility
EDT Latitude Longitude Course Direction KTS MPH feet Rate Location/Type
Wed 01:34:32 PM 34.5958 -92.9886 29° Northeast 193 222 5,700  Level Memphis Center
Wed 01:35:32 PM 34.6317 -92.9644 29° Northeast 164 189 7,000 1,200 Climbing Memphis Center
Wed 01:36:32 PM 34.6678 -92.9378 31° Northeast 148 170 8,100 1,150 Climbing Memphis Center
Wed 01:37:32 PM 34.7039 -92.9061 36° Northeast 148 170 9,300 1,160 Climbing Memphis Center
Wed 01:38:31 PM 34.7419 -92.8844 25° Northeast 148 170 10,400 1,160 Climbing Memphis Center
Wed 01:39:31 PM 34.7822 -92.8578 29° Northeast 153 176 11,600 1,041 Climbing Memphis Center
Wed 01:40:32 PM 34.8203 -92.8286 32° Northeast 153 176 12,500 893 Climbing Memphis Center
Wed 01:41:32 PM 34.8564 -92.7967 36° Northeast 158 182 13,400 900 Climbing Memphis Center
Wed 01:42:32 PM 34.9006 -92.7753 22° Northeast 158 182 14,300 850 Climbing Memphis Center
Wed 01:43:32 PM 34.9428 -92.7461 30° Northeast 158 182 15,100 800 Climbing Memphis Center
Wed 01:44:32 PM 34.9831 -92.7167 31° Northeast 163 188 15,900 807 Climbing Memphis Center
Wed 01:45:31 PM 35.0211 -92.6822 37° Northeast 163 188 16,700 706 Climbing Memphis Center
Wed 01:46:31 PM 35.0636 -92.6531 29° Northeast 168 193 17,300 595 Climbing Memphis Center
Wed 01:47:32 PM 35.1078 -92.6211 31° Northeast 168 193 17,900 645 Climbing Memphis Center
Wed 01:48:32 PM 35.1481 -92.5919 31° Northeast 168 193 18,600 600 Climbing Memphis Center
Wed 01:49:32 PM 35.1925 -92.5600 30° Northeast 168 193 19,100 500 Climbing Memphis Center
Wed 01:50:32 PM 35.2369 -92.5256 32° Northeast 168 193 19,600 550 Climbing Memphis Center
Wed 01:51:32 PM 35.2833 -92.4911 31° Northeast 181 208 20,200 600 Climbing Memphis Center
Wed 01:52:32 PM 35.3256 -92.4567 34° Northeast 181 208 20,800 454 Climbing Memphis Center
Wed 01:53:31 PM 35.3700 -92.4247 30° Northeast 181 208 21,100 150 Climbing Memphis Center
Wed 01:54:32 PM 35.4164 -92.3900 31° Northeast 186 214 21,100  Level Memphis Center
Wed 01:55:31 PM 35.4692 -92.3531 30° Northeast 198 228 21,100  Level Memphis Center
Wed 01:56:32 PM 35.5239 -92.3136 30° Northeast 209 241 21,100 -50 Level Memphis Center
Wed 01:57:32 PM 35.5789 -92.2717 32° Northeast 214 246 21,000 -50 Descending Memphis Center
Wed 01:58:32 PM 35.6317 -92.2344 30° Northeast 214 246 21,000  Level Memphis Center
Wed 01:59:32 PM 35.6886 -92.1922 31° Northeast 220 253 21,000  Level Memphis Center
Wed 02:00:31 PM 35.7414 -92.1500 33° Northeast 226 260 21,000  Level Memphis Center
Wed 02:01:32 PM 35.7961 -92.1103 30° Northeast 226 260 21,000  Level Memphis Center
Wed 02:02:32 PM 35.8508 -92.0703 31° Northeast 226 260 21,000  Level Memphis Center
Wed 02:03:32 PM 35.9078 -92.0281 31° Northeast 231 266 21,000  Level Memphis Center
Wed 02:04:32 PM 35.9542 -91.9906 33° Northeast 231 266 21,000  Level Memphis Center
Wed 02:05:32 PM 36.0131 -91.9481 30° Northeast 231 266 21,000  Level Memphis Center
Wed 02:06:32 PM 36.0636 -91.9053 34° Northeast 231 266 21,000  Level Memphis Center
Wed 02:07:32 PM 36.1203 -91.8653 30° Northeast 231 266 21,000  Level Memphis Center
Wed 02:08:31 PM 36.1750 -91.8250 31° Northeast 231 266 21,000  Level Memphis Center
Wed 02:09:32 PM 36.2339 -91.7800 32° Northeast 231 266 21,000  Level Memphis Center
Wed 02:10:32 PM 36.2803 -91.7419 33° Northeast 225 259 21,000  Level Memphis Center
Wed 02:11:32 PM 36.3350 -91.7017 31° Northeast 220 253 21,000  Level Memphis Center
Wed 02:12:32 PM 36.3917 -91.6589 31° Northeast 220 253 21,000  Level Memphis Center
Wed 02:13:32 PM 36.4461 -91.6183 31° Northeast 226 260 21,000  Level Memphis Center
Wed 02:14:32 PM 36.5092 -91.5731 30° Northeast 239 275 21,000  Level Memphis Center
Wed 02:15:31 PM 36.5639 -91.5297 32° Northeast 232 267 21,000  Level Memphis Center
Wed 02:16:32 PM 36.6183 -91.4867 32° Northeast 232 267 21,000  Level Memphis Center
Wed 02:17:31 PM 36.6750 -91.4461 30° Northeast 232 267 21,000  Level Memphis Center
Wed 02:18:32 PM 36.7275 -91.4028 33° Northeast 232 267 21,000  Level Memphis Center
Wed 02:19:32 PM 36.7842 -91.3619 30° Northeast 232 267 21,000  Level Memphis Center
Wed 02:20:43 PM 36.8497 -91.3081 33° Northeast 231 266 21,000  Level Kansas Center
Wed 02:21:45 PM 36.9033 -91.2656 32° Northeast 228 262 21,000  Level Kansas Center
Wed 02:22:00 PM 36.9139 -91.2575 32° Northeast  Level FlightAware
Wed 02:22:47 PM 36.9592 -91.2233 31° Northeast 232 267 21,000  Level Kansas Center
Wed 02:23:49 PM 37.0128 -91.1806 32° Northeast 231 266 21,000  Level Kansas Center
Wed 02:24:51 PM 37.0678 -91.1383 31° Northeast 231 266 21,000  Level Kansas Center
Wed 02:25:53 PM 37.1228 -91.0956 32° Northeast 232 267 21,000  Level Kansas Center
Wed 02:26:55 PM 37.1881 -91.0461 31° Northeast 230 265 21,000  Level Kansas Center
Wed 02:27:57 PM 37.2414 -91.0025 33° Northeast 228 262 21,000  Level Kansas Center
Wed 02:28:59 PM 37.2956 -90.9600 32° Northeast 229 264 21,000  Level Kansas Center
Wed 02:30:01 PM 37.3489 -90.9197 31° Northeast 227 261 21,000  Level Kansas Center
Wed 02:31:03 PM 37.4039 -90.8772 32° Northeast 228 262 21,000  Level Kansas Center
Wed 02:32:05 PM 37.4583 -90.8344 32° Northeast 229 264 21,000  Level Kansas Center
Wed 02:33:07 PM 37.5222 -90.7833 32° Northeast 229 264 21,000  Level Kansas Center
Wed 02:34:09 PM 37.5750 -90.7428 31° Northeast 228 262 21,000  Level Kansas Center
Wed 02:35:11 PM 37.6281 -90.6964 35° Northeast 230 265 21,000  Level Kansas Center
Wed 02:36:13 PM 37.6831 -90.6558 30° Northeast 230 265 21,000  Level Kansas Center
Wed 02:37:15 PM 37.7364 -90.6128 33° Northeast 229 264 21,000  Level Kansas Center
Wed 02:38:17 PM 37.7919 -90.5717 30° Northeast 230 265 21,000  Level Kansas Center
Wed 02:39:19 PM 37.8464 -90.5286 32° Northeast 232 267 21,000  Level Kansas Center
Wed 02:40:21 PM 37.9108 -90.4756 33° Northeast 231 266 21,000  Level Kansas Center
Wed 02:41:23 PM 37.9653 -90.4319 32° Northeast 231 266 21,000  Level Kansas Center
Wed 02:42:25 PM 38.0192 -90.3886 32° Northeast 232 267 21,000  Level Kansas Center
Wed 02:43:27 PM 38.0728 -90.3419 34° Northeast 234 269 21,000  Level Kansas Center
Wed 02:44:29 PM 38.1281 -90.2994 31° Northeast 232 267 21,000  Level Kansas Center
Wed 02:45:31 PM 38.1931 -90.2492 31° Northeast 230 265 21,000  Level Kansas Center
Wed 02:46:33 PM 38.2478 -90.2044 33° Northeast 234 269 21,000  Level Kansas Center
Wed 02:47:35 PM 38.3019 -90.1603 33° Northeast 234 269 21,000  Level Kansas Center
Wed 02:48:37 PM 38.3556 -90.1161 33° Northeast 232 267 21,000  Level Kansas Center
Wed 02:49:39 PM 38.4106 -90.0717 32° Northeast 234 269 21,000  Level Kansas Center
Wed 02:50:41 PM 38.4647 -90.0272 33° Northeast 234 269 21,000  Level Kansas Center
Wed 02:51:43 PM 38.5292 -89.9744 33° Northeast 231 266 21,000  Level Kansas Center
Wed 02:52:46 PM 38.5831 -89.9306 32° Northeast 231 266 21,000  Level Kansas Center
Wed 02:53:48 PM 38.6375 -89.8861 33° Northeast 233 268 21,000  Level Kansas Center
Wed 02:54:50 PM 38.6933 -89.8417 32° Northeast 237 273 21,000  Level Kansas Center
Wed 02:55:52 PM 38.7472 -89.7961 33° Northeast 234 269 21,000  Level Kansas Center
Wed 02:56:54 PM 38.8133 -89.7417 33° Northeast 235 270 21,000  Level Kansas Center
Wed 02:57:56 PM 38.8681 -89.6972 32° Northeast 234 269 21,000  Level Kansas Center
Wed 02:58:58 PM 38.9278 -89.6467 33° Northeast 232 267 21,000  Level Kansas Center
Wed 03:00:00 PM 38.9833 -89.6008 33° Northeast 237 273 21,000  Level Kansas Center
Wed 03:01:02 PM 39.0428 -89.5517 33° Northeast 237 273 21,000  Level Kansas Center
Wed 03:02:04 PM 39.0978 -89.5039 34° Northeast 239 275 21,000  Level Kansas Center
Wed 03:03:06 PM 39.1581 -89.4553 32° Northeast 238 274 21,000  Level Kansas Center
Wed 03:04:08 PM 39.2114 -89.4131 32° Northeast 243 280 21,000  Level Kansas Center
Wed 03:05:10 PM 39.2664 -89.3653 34° Northeast 240 276 21,000 -145 Level Kansas Center
Wed 03:06:12 PM 39.3228 -89.3194 32° Northeast 239 275 20,700 -339 Descending Kansas Center
Wed 03:07:14 PM 39.3825 -89.2686 33° Northeast 252 290 20,300 -339 Descending Kansas Center
Wed 03:08:16 PM 39.4528 -89.2106 33° Northeast 254 292 20,000 -532 Descending Kansas Center
Wed 03:09:18 PM 39.5128 -89.1592 33° Northeast 257 296 19,200 -677 Descending Kansas Center
Wed 03:10:20 PM 39.5750 -89.1092 32° Northeast 262 302 18,600 -532 Descending Kansas Center
Wed 03:11:22 PM 39.6347 -89.0575 34° Northeast 260 299 18,100 -242 Descending Kansas Center
Wed 03:12:24 PM 39.6925 -89.0089 33° Northeast 252 290 18,100 -48 Level Kansas Center
Wed 03:13:26 PM 39.7592 -88.9503 34° Northeast 243 280 18,000  Descending Kansas Center
Wed 03:14:28 PM 39.8125 -88.9042 34° Northeast 236 272 18,100 48 Climbing Kansas Center
Wed 03:15:30 PM 39.8686 -88.8581 32° Northeast 237 273 18,100  Level Kansas Center
Wed 03:16:32 PM 39.9233 -88.8097 34° Northeast 237 273 18,100  Level Kansas Center
Wed 03:17:35 PM 39.9772 -88.7647 33° Northeast 234 269 18,100 -96 Level Kansas Center
Wed 03:18:37 PM 40.0328 -88.7181 33° Northeast 235 270 17,900 -581 Descending Kansas Center
Wed 03:19:39 PM 40.1036 -88.6564 34° Northeast 249 287 16,900 -871 Descending Kansas Center
Wed 03:20:41 PM 40.1633 -88.6067 32° Northeast 254 292 16,100 -919 Descending Kansas Center
Wed 03:21:43 PM 40.2189 -88.5564 35° Northeast 248 285 15,000 -968 Descending Kansas Center
Wed 03:22:45 PM 40.2744 -88.5061 35° Northeast 243 280 14,100 -761 Descending Kansas Center
Wed 03:24:05 PM 40.3472 -88.4419 34° Northeast 233 268 13,200 -845 Descending Chicago Center
Wed 03:25:07 PM 40.4003 -88.3961 33° Northeast 230 265 12,100 -968 Descending Chicago Center
Wed 03:26:09 PM 40.4672 -88.3408 32° Northeast 237 273 11,200 -528 Descending Chicago Center
Wed 03:27:12 PM 40.5158 -88.2942 36° Northeast 223 257 11,000 -96 Descending Chicago Center
Wed 03:28:14 PM 40.5650 -88.2528 33° Northeast 213 245 11,000  Level Chicago Center
Wed 03:29:16 PM 40.6144 -88.2097 33° Northeast 214 246 11,000  Level Chicago Center
Wed 03:31:20 PM 40.7203 -88.1164 34° Northeast 208 239 11,000  Level Chicago Center
Wed 03:32:22 PM 40.7694 -88.0719 34° Northeast 215 247 11,000  Level Chicago Center
Wed 03:33:24 PM 40.8192 -88.0294 33° Northeast 214 246 11,000 -194 Level Chicago Center
Wed 03:34:26 PM 40.8694 -87.9847 34° Northeast 219 252 10,600 -677 Descending Chicago Center
Wed 03:35:28 PM 40.9233 -87.9383 33° Northeast 231 266 9,600 -1,306 Descending Chicago Center
Wed 03:36:30 PM 40.9864 -87.8808 35° Northeast 231 266 7,900 -1,306 Descending Chicago Center
Wed 03:37:32 PM 41.0406 -87.8325 34° Northeast 236 272 6,900 -1,008 Descending Chicago Center
Wed 03:38:35 PM 41.0933 -87.7872 33° Northeast 232 267 5,800 -1,056 Descending Chicago Center
Wed 03:39:37 PM 41.1428 -87.7419 35° Northeast 226 260 4,700 -823 Descending Chicago Center
Wed 03:40:39 PM 41.2078 -87.7208 14° North 214 246 4,100 -339 Descending Chicago Center
Wed 03:41:41 PM 41.2592 -87.7086 10° North 200 230 4,000 -48 Descending Chicago Center
Wed 03:42:43 PM 41.3106 -87.6953 11° North 194 223 4,000  Level Chicago Center
Wed 03:43:45 PM 41.3586 -87.6833 11° North 193 222 4,000  Level Chicago Center
Wed 03:45:00 PM 41.4050 -87.6019 29° Northeast  Level Estimated
Wed 03:52:00 PM 41.5198 -87.3995 37° Northeast  Level Estimated
Wed 03:53:00 PM 41.5198 -87.3995 37° Northeast  Level Estimated
Wed 03:54:00 PM 41.5198 -87.3995 37° Northeast  Level Estimated
Wed 03:55:00 PM 41.5198 -87.3995 37° Northeast  Level Estimated
Wed 03:56:00 PM 41.5198 -87.3995 37° Northeast  Level Estimated
Wed 03:57:00 PM 41.5198 -87.3995 37° Northeast  Level Estimated

Login

Don't have an account? Register now (free) for customized features, flight alerts, and more!